sensor_id;sensor_type;location;lat;lon;timestamp;pressure;altitude;pressure_sealevel;temperature;humidity
55610;BME280;41486;52.502;13.486;2023-08-06T00:01:05;100296.38;;;17.61;100.00
55610;BME280;41486;52.502;13.486;2023-08-06T00:03:33;100288.31;;;17.77;100.00
55610;BME280;41486;52.502;13.486;2023-08-06T00:06:04;100291.72;;;17.55;100.00
55610;BME280;41486;52.502;13.486;2023-08-06T00:08:32;100296.50;;;17.67;100.00
55610;BME280;41486;52.502;13.486;2023-08-06T00:11:00;100294.56;;;17.53;100.00
55610;BME280;41486;52.502;13.486;2023-08-06T00:13:28;100297.25;;;17.45;100.00
55610;BME280;41486;52.502;13.486;2023-08-06T00:16:08;100292.06;;;17.52;100.00
55610;BME280;41486;52.502;13.486;2023-08-06T00:18:36;100288.56;;;17.51;100.00
55610;BME280;41486;52.502;13.486;2023-08-06T00:21:04;100281.22;;;17.61;100.00
55610;BME280;41486;52.502;13.486;2023-08-06T00:23:32;100282.78;;;17.39;100.00
55610;BME280;41486;52.502;13.486;2023-08-06T00:26:00;100282.97;;;17.38;100.00
55610;BME280;41486;52.502;13.486;2023-08-06T00:28:28;100289.16;;;17.30;100.00
55610;BME280;41486;52.502;13.486;2023-08-06T00:30:58;100278.97;;;17.50;100.00
55610;BME280;41486;52.502;13.486;2023-08-06T00:33:26;100263.97;;;17.57;100.00
55610;BME280;41486;52.502;13.486;2023-08-06T00:35:54;100277.13;;;17.50;100.00
55610;BME280;41486;52.502;13.486;2023-08-06T00:38:22;100271.97;;;17.49;100.00
55610;BME280;41486;52.502;13.486;2023-08-06T00:40:50;100262.53;;;17.38;100.00
55610;BME280;41486;52.502;13.486;2023-08-06T00:43:18;100268.09;;;17.60;100.00
55610;BME280;41486;52.502;13.486;2023-08-06T00:45:46;100264.13;;;17.56;100.00
55610;BME280;41486;52.502;13.486;2023-08-06T00:48:15;100268.38;;;17.33;100.00
55610;BME280;41486;52.502;13.486;2023-08-06T00:50:44;100270.63;;;17.45;100.00
55610;BME280;41486;52.502;13.486;2023-08-06T00:53:13;100270.34;;;17.40;100.00
55610;BME280;41486;52.502;13.486;2023-08-06T00:55:41;100259.28;;;17.59;100.00
55610;BME280;41486;52.502;13.486;2023-08-06T00:58:12;100268.84;;;17.45;100.00
55610;BME280;41486;52.502;13.486;2023-08-06T01:00:40;100269.13;;;17.50;100.00
55610;BME280;41486;52.502;13.486;2023-08-06T01:03:08;100263.31;;;17.47;100.00
55610;BME280;41486;52.502;13.486;2023-08-06T01:05:38;100270.38;;;17.31;100.00
55610;BME280;41486;52.502;13.486;2023-08-06T01:08:14;100268.97;;;17.44;100.00
55610;BME280;41486;52.502;13.486;2023-08-06T01:10:53;100258.88;;;17.31;100.00
55610;BME280;41486;52.502;13.486;2023-08-06T01:13:30;100266.72;;;17.32;100.00
55610;BME280;41486;52.502;13.486;2023-08-06T01:16:00;100261.50;;;17.39;100.00
55610;BME280;41486;52.502;13.486;2023-08-06T01:18:29;100261.19;;;17.42;100.00
55610;BME280;41486;52.502;13.486;2023-08-06T01:21:01;100261.91;;;17.19;100.00
55610;BME280;41486;52.502;13.486;2023-08-06T01:23:29;100257.69;;;17.42;100.00
55610;BME280;41486;52.502;13.486;2023-08-06T01:26:03;100255.13;;;17.17;100.00
55610;BME280;41486;52.502;13.486;2023-08-06T01:28:33;100246.66;;;17.13;100.00
55610;BME280;41486;52.502;13.486;2023-08-06T01:31:07;100244.81;;;17.14;100.00
55610;BME280;41486;52.502;13.486;2023-08-06T01:33:43;100233.53;;;17.03;100.00
55610;BME280;41486;52.502;13.486;2023-08-06T01:36:16;100238.00;;;17.19;100.00
55610;BME280;41486;52.502;13.486;2023-08-06T01:38:45;100241.16;;;17.15;100.00
55610;BME280;41486;52.502;13.486;2023-08-06T01:41:13;100230.81;;;17.20;100.00
55610;BME280;41486;52.502;13.486;2023-08-06T01:43:41;100229.16;;;17.19;100.00
55610;BME280;41486;52.502;13.486;2023-08-06T01:46:09;100222.53;;;17.15;100.00
55610;BME280;41486;52.502;13.486;2023-08-06T01:48:37;100223.06;;;17.02;100.00
55610;BME280;41486;52.502;13.486;2023-08-06T01:51:05;100221.56;;;17.08;100.00
55610;BME280;41486;52.502;13.486;2023-08-06T01:53:35;100222.72;;;17.13;100.00
55610;BME280;41486;52.502;13.486;2023-08-06T01:56:03;100214.63;;;16.98;100.00
55610;BME280;41486;52.502;13.486;2023-08-06T01:58:31;100198.47;;;17.00;100.00
55610;BME280;41486;52.502;13.486;2023-08-06T02:00:59;100202.00;;;17.00;100.00
55610;BME280;41486;52.502;13.486;2023-08-06T02:03:28;100198.94;;;17.12;100.00
55610;BME280;41486;52.502;13.486;2023-08-06T02:05:56;100203.47;;;17.03;100.00
55610;BME280;41486;52.502;13.486;2023-08-06T02:08:24;100204.66;;;16.84;100.00
55610;BME280;41486;52.502;13.486;2023-08-06T02:10:54;100206.31;;;17.01;100.00
55610;BME280;41486;52.502;13.486;2023-08-06T02:13:22;100197.44;;;17.17;100.00
55610;BME280;41486;52.502;13.486;2023-08-06T02:15:50;100191.00;;;16.87;100.00
55610;BME280;41486;52.502;13.486;2023-08-06T02:18:18;100189.19;;;16.87;100.00
55610;BME280;41486;52.502;13.486;2023-08-06T02:20:55;100201.50;;;16.97;100.00
55610;BME280;41486;52.502;13.486;2023-08-06T02:23:23;100200.34;;;16.83;100.00
55610;BME280;41486;52.502;13.486;2023-08-06T02:25:59;100189.19;;;16.87;100.00
55610;BME280;41486;52.502;13.486;2023-08-06T02:28:27;100186.72;;;16.86;100.00
55610;BME280;41486;52.502;13.486;2023-08-06T02:30:55;100184.41;;;16.66;100.00
55610;BME280;41486;52.502;13.486;2023-08-06T02:33:23;100177.91;;;16.77;100.00
55610;BME280;41486;52.502;13.486;2023-08-06T02:35:58;100182.44;;;16.60;100.00
55610;BME280;41486;52.502;13.486;2023-08-06T02:38:27;100181.09;;;16.64;100.00
55610;BME280;41486;52.502;13.486;2023-08-06T02:40:57;100169.13;;;16.93;100.00
55610;BME280;41486;52.502;13.486;2023-08-06T02:43:25;100167.59;;;16.99;100.00
55610;BME280;41486;52.502;13.486;2023-08-06T02:45:57;100165.78;;;16.91;100.00
55610;BME280;41486;52.502;13.486;2023-08-06T02:48:25;100171.59;;;16.86;100.00
55610;BME280;41486;52.502;13.486;2023-08-06T02:50:57;100166.50;;;16.68;100.00
55610;BME280;41486;52.502;13.486;2023-08-06T02:53:26;100162.69;;;16.63;100.00
55610;BME280;41486;52.502;13.486;2023-08-06T02:55:55;100164.84;;;16.59;100.00
55610;BME280;41486;52.502;13.486;2023-08-06T02:58:31;100163.69;;;16.53;100.00
55610;BME280;41486;52.502;13.486;2023-08-06T03:01:14;100163.00;;;16.60;100.00
55610;BME280;41486;52.502;13.486;2023-08-06T03:03:48;100169.16;;;16.52;100.00
55610;BME280;41486;52.502;13.486;2023-08-06T03:06:23;100163.34;;;16.65;100.00
55610;BME280;41486;52.502;13.486;2023-08-06T03:08:54;100169.31;;;16.59;100.00
55610;BME280;41486;52.502;13.486;2023-08-06T03:11:22;100171.16;;;16.58;100.00
55610;BME280;41486;52.502;13.486;2023-08-06T03:13:56;100168.81;;;16.55;100.00
55610;BME280;41486;52.502;13.486;2023-08-06T03:16:24;100165.34;;;16.46;100.00
55610;BME280;41486;52.502;13.486;2023-08-06T03:18:53;100164.03;;;16.42;100.00
55610;BME280;41486;52.502;13.486;2023-08-06T03:21:21;100156.56;;;16.46;100.00
55610;BME280;41486;52.502;13.486;2023-08-06T03:23:49;100155.22;;;16.42;100.00
55610;BME280;41486;52.502;13.486;2023-08-06T03:26:21;100150.25;;;16.38;100.00
55610;BME280;41486;52.502;13.486;2023-08-06T03:28:49;100150.59;;;16.35;100.00
55610;BME280;41486;52.502;13.486;2023-08-06T03:31:19;100140.97;;;16.43;100.00
55610;BME280;41486;52.502;13.486;2023-08-06T03:33:47;100141.28;;;16.39;100.00
55610;BME280;41486;52.502;13.486;2023-08-06T03:36:22;100138.00;;;16.37;100.00
55610;BME280;41486;52.502;13.486;2023-08-06T03:38:51;100127.69;;;16.34;100.00
55610;BME280;41486;52.502;13.486;2023-08-06T03:41:19;100122.69;;;16.48;100.00
55610;BME280;41486;52.502;13.486;2023-08-06T03:43:47;100132.31;;;16.40;100.00
55610;BME280;41486;52.502;13.486;2023-08-06T03:46:22;100127.53;;;16.28;100.00
55610;BME280;41486;52.502;13.486;2023-08-06T03:48:52;100131.34;;;16.33;100.00
55610;BME280;41486;52.502;13.486;2023-08-06T03:51:20;100127.38;;;16.37;100.00
55610;BME280;41486;52.502;13.486;2023-08-06T03:53:49;100114.56;;;16.49;100.00
55610;BME280;41486;52.502;13.486;2023-08-06T03:56:16;100117.25;;;16.41;100.00
55610;BME280;41486;52.502;13.486;2023-08-06T03:58:45;100116.06;;;16.44;100.00
55610;BME280;41486;52.502;13.486;2023-08-06T04:01:13;100106.94;;;16.38;100.00
55610;BME280;41486;52.502;13.486;2023-08-06T04:03:45;100111.28;;;16.31;100.00
55610;BME280;41486;52.502;13.486;2023-08-06T04:06:13;100099.97;;;16.29;100.00
55610;BME280;41486;52.502;13.486;2023-08-06T04:08:41;100105.31;;;16.20;100.00
55610;BME280;41486;52.502;13.486;2023-08-06T04:11:09;100100.66;;;16.22;100.00
55610;BME280;41486;52.502;13.486;2023-08-06T04:13:42;100093.03;;;16.19;100.00
55610;BME280;41486;52.502;13.486;2023-08-06T04:16:10;100102.31;;;16.15;100.00
55610;BME280;41486;52.502;13.486;2023-08-06T04:18:40;100099.16;;;16.28;100.00
55610;BME280;41486;52.502;13.486;2023-08-06T04:21:09;100098.69;;;16.24;100.00
55610;BME280;41486;52.502;13.486;2023-08-06T04:23:37;100094.53;;;16.22;100.00
55610;BME280;41486;52.502;13.486;2023-08-06T04:26:07;100092.38;;;16.26;100.00
55610;BME280;41486;52.502;13.486;2023-08-06T04:28:37;100089.38;;;16.29;100.00
55610;BME280;41486;52.502;13.486;2023-08-06T04:31:05;100081.28;;;16.14;100.00
55610;BME280;41486;52.502;13.486;2023-08-06T04:33:33;100085.06;;;16.19;100.00
55610;BME280;41486;52.502;13.486;2023-08-06T04:36:06;100076.94;;;16.21;100.00
55610;BME280;41486;52.502;13.486;2023-08-06T04:38:36;100072.63;;;16.20;100.00
55610;BME280;41486;52.502;13.486;2023-08-06T04:41:05;100066.28;;;16.37;100.00
55610;BME280;41486;52.502;13.486;2023-08-06T04:43:34;100065.47;;;16.20;100.00
55610;BME280;41486;52.502;13.486;2023-08-06T04:46:02;100057.88;;;16.09;100.00
55610;BME280;41486;52.502;13.486;2023-08-06T04:48:30;100052.38;;;16.19;100.00
55610;BME280;41486;52.502;13.486;2023-08-06T04:50:58;100057.69;;;16.19;100.00
55610;BME280;41486;52.502;13.486;2023-08-06T04:53:26;100050.03;;;16.24;100.00
55610;BME280;41486;52.502;13.486;2023-08-06T04:55:56;100051.38;;;16.28;100.00
55610;BME280;41486;52.502;13.486;2023-08-06T04:58:23;100040.88;;;16.35;100.00
55610;BME280;41486;52.502;13.486;2023-08-06T05:00:52;100041.25;;;16.32;100.00
55610;BME280;41486;52.502;13.486;2023-08-06T05:03:20;100043.06;;;16.31;100.00
55610;BME280;41486;52.502;13.486;2023-08-06T05:05:48;100037.94;;;16.21;100.00
55610;BME280;41486;52.502;13.486;2023-08-06T05:08:16;100053.06;;;16.13;100.00
55610;BME280;41486;52.502;13.486;2023-08-06T05:10:45;100047.09;;;16.11;100.00
55610;BME280;41486;52.502;13.486;2023-08-06T05:13:14;100048.41;;;16.06;100.00
55610;BME280;41486;52.502;13.486;2023-08-06T05:15:42;100039.91;;;16.28;100.00
55610;BME280;41486;52.502;13.486;2023-08-06T05:18:12;100033.31;;;16.23;100.00
55610;BME280;41486;52.502;13.486;2023-08-06T05:20:41;100028.00;;;16.23;100.00
55610;BME280;41486;52.502;13.486;2023-08-06T05:23:10;100027.69;;;16.18;100.00
55610;BME280;41486;52.502;13.486;2023-08-06T05:25:38;100025.34;;;16.15;100.00
55610;BME280;41486;52.502;13.486;2023-08-06T05:28:06;100019.88;;;16.17;100.00
55610;BME280;41486;52.502;13.486;2023-08-06T05:30:39;100021.22;;;16.13;100.00
55610;BME280;41486;52.502;13.486;2023-08-06T05:33:07;100017.22;;;16.08;100.00
55610;BME280;41486;52.502;13.486;2023-08-06T05:35:35;100019.34;;;16.21;100.00
55610;BME280;41486;52.502;13.486;2023-08-06T05:38:03;100007.72;;;16.31;100.00
55610;BME280;41486;52.502;13.486;2023-08-06T05:40:33;100017.88;;;16.19;100.00
55610;BME280;41486;52.502;13.486;2023-08-06T05:43:01;100013.06;;;16.14;100.00
55610;BME280;41486;52.502;13.486;2023-08-06T05:45:29;100016.03;;;16.28;100.00
55610;BME280;41486;52.502;13.486;2023-08-06T05:47:58;100014.34;;;16.35;100.00
55610;BME280;41486;52.502;13.486;2023-08-06T05:50:26;100015.84;;;16.37;100.00
55610;BME280;41486;52.502;13.486;2023-08-06T05:52:54;100012.22;;;16.70;100.00
55610;BME280;41486;52.502;13.486;2023-08-06T05:55:24;100010.56;;;16.69;100.00
55610;BME280;41486;52.502;13.486;2023-08-06T05:57:52;100010.31;;;16.55;100.00
55610;BME280;41486;52.502;13.486;2023-08-06T06:00:21;100001.19;;;16.50;100.00
55610;BME280;41486;52.502;13.486;2023-08-06T06:02:49;99997.81;;;16.64;100.00
55610;BME280;41486;52.502;13.486;2023-08-06T06:05:18;100001.31;;;16.65;100.00
55610;BME280;41486;52.502;13.486;2023-08-06T06:07:46;100002.88;;;16.43;100.00
55610;BME280;41486;52.502;13.486;2023-08-06T06:10:15;99999.75;;;16.39;100.00
55610;BME280;41486;52.502;13.486;2023-08-06T06:12:43;99993.28;;;16.73;100.00
55610;BME280;41486;52.502;13.486;2023-08-06T06:15:11;99991.75;;;16.47;100.00
55610;BME280;41486;52.502;13.486;2023-08-06T06:17:39;99991.97;;;16.69;100.00
55610;BME280;41486;52.502;13.486;2023-08-06T06:20:07;99988.22;;;16.55;100.00
55610;BME280;41486;52.502;13.486;2023-08-06T06:22:37;99989.09;;;16.47;100.00
55610;BME280;41486;52.502;13.486;2023-08-06T06:25:06;99980.44;;;16.45;100.00
55610;BME280;41486;52.502;13.486;2023-08-06T06:27:34;99982.28;;;16.45;100.00
55610;BME280;41486;52.502;13.486;2023-08-06T06:30:02;99989.41;;;16.44;100.00
55610;BME280;41486;52.502;13.486;2023-08-06T06:32:31;99981.31;;;16.46;100.00
55610;BME280;41486;52.502;13.486;2023-08-06T06:34:59;99981.28;;;16.54;100.00
55610;BME280;41486;52.502;13.486;2023-08-06T06:37:27;99975.41;;;16.59;100.00
55610;BME280;41486;52.502;13.486;2023-08-06T06:39:56;99972.91;;;16.65;100.00
55610;BME280;41486;52.502;13.486;2023-08-06T06:42:24;99969.81;;;16.85;100.00
55610;BME280;41486;52.502;13.486;2023-08-06T06:44:58;99965.22;;;16.70;100.00
55610;BME280;41486;52.502;13.486;2023-08-06T06:47:26;99970.88;;;16.76;100.00
55610;BME280;41486;52.502;13.486;2023-08-06T06:49:54;99964.41;;;16.70;100.00
55610;BME280;41486;52.502;13.486;2023-08-06T06:52:22;99966.88;;;16.71;100.00
55610;BME280;41486;52.502;13.486;2023-08-06T06:54:50;99966.44;;;16.60;100.00
55610;BME280;41486;52.502;13.486;2023-08-06T06:57:19;99969.72;;;16.70;100.00
55610;BME280;41486;52.502;13.486;2023-08-06T06:59:47;99973.34;;;16.77;100.00
55610;BME280;41486;52.502;13.486;2023-08-06T07:02:15;99969.97;;;16.83;100.00
55610;BME280;41486;52.502;13.486;2023-08-06T07:04:43;99976.94;;;16.84;100.00
55610;BME280;41486;52.502;13.486;2023-08-06T07:07:11;99971.81;;;16.83;100.00
55610;BME280;41486;52.502;13.486;2023-08-06T07:09:40;99965.84;;;16.81;100.00
55610;BME280;41486;52.502;13.486;2023-08-06T07:12:08;99967.53;;;16.74;100.00
55610;BME280;41486;52.502;13.486;2023-08-06T07:14:37;99968.59;;;16.64;100.00
55610;BME280;41486;52.502;13.486;2023-08-06T07:17:05;99970.28;;;16.97;100.00
55610;BME280;41486;52.502;13.486;2023-08-06T07:19:33;99972.47;;;16.93;100.00
55610;BME280;41486;52.502;13.486;2023-08-06T07:22:01;99967.44;;;16.90;100.00
55610;BME280;41486;52.502;13.486;2023-08-06T07:24:30;99967.56;;;17.05;100.00
55610;BME280;41486;52.502;13.486;2023-08-06T07:26:58;99971.22;;;17.04;100.00
55610;BME280;41486;52.502;13.486;2023-08-06T07:29:26;99970.28;;;16.97;100.00
55610;BME280;41486;52.502;13.486;2023-08-06T07:31:55;99974.13;;;16.94;100.00
55610;BME280;41486;52.502;13.486;2023-08-06T07:34:23;99975.69;;;17.03;100.00
55610;BME280;41486;52.502;13.486;2023-08-06T07:36:52;99972.47;;;16.93;100.00
55610;BME280;41486;52.502;13.486;2023-08-06T07:39:20;99973.97;;;17.11;100.00
55610;BME280;41486;52.502;13.486;2023-08-06T07:41:49;99968.03;;;17.09;100.00
55610;BME280;41486;52.502;13.486;2023-08-06T07:44:17;99970.84;;;17.07;100.00
55610;BME280;41486;52.502;13.486;2023-08-06T07:46:45;99972.31;;;17.18;100.00
55610;BME280;41486;52.502;13.486;2023-08-06T07:49:15;99949.28;;;17.48;100.00
55610;BME280;41486;52.502;13.486;2023-08-06T07:51:43;99959.34;;;17.76;100.00
55610;BME280;41486;52.502;13.486;2023-08-06T07:54:11;99949.44;;;17.85;100.00
55610;BME280;41486;52.502;13.486;2023-08-06T07:56:39;99953.00;;;17.92;100.00
55610;BME280;41486;52.502;13.486;2023-08-06T07:59:07;99948.50;;;17.78;100.00
55610;BME280;41486;52.502;13.486;2023-08-06T08:01:36;99948.69;;;17.76;100.00
55610;BME280;41486;52.502;13.486;2023-08-06T08:04:04;99950.50;;;17.99;100.00
55610;BME280;41486;52.502;13.486;2023-08-06T08:06:33;99956.59;;;17.85;100.00
55610;BME280;41486;52.502;13.486;2023-08-06T08:09:01;99956.75;;;17.68;100.00
55610;BME280;41486;52.502;13.486;2023-08-06T08:11:32;99947.78;;;17.84;100.00
55610;BME280;41486;52.502;13.486;2023-08-06T08:14:00;99942.38;;;17.92;100.00
55610;BME280;41486;52.502;13.486;2023-08-06T08:16:29;99939.75;;;18.07;100.00
55610;BME280;41486;52.502;13.486;2023-08-06T08:19:02;99940.34;;;17.94;100.00
55610;BME280;41486;52.502;13.486;2023-08-06T08:21:35;99935.63;;;18.05;100.00
55610;BME280;41486;52.502;13.486;2023-08-06T08:24:04;99941.69;;;17.99;100.00
55610;BME280;41486;52.502;13.486;2023-08-06T08:26:32;99934.16;;;18.02;100.00
55610;BME280;41486;52.502;13.486;2023-08-06T08:29:00;99925.06;;;17.96;100.00
55610;BME280;41486;52.502;13.486;2023-08-06T08:31:28;99926.88;;;17.81;100.00
55610;BME280;41486;52.502;13.486;2023-08-06T08:33:56;99936.91;;;17.56;100.00
55610;BME280;41486;52.502;13.486;2023-08-06T08:36:27;99923.44;;;17.72;100.00
55610;BME280;41486;52.502;13.486;2023-08-06T08:38:57;99920.53;;;17.82;100.00
55610;BME280;41486;52.502;13.486;2023-08-06T08:41:25;99917.72;;;17.99;100.00
55610;BME280;41486;52.502;13.486;2023-08-06T08:43:56;99902.63;;;17.91;100.00
55610;BME280;41486;52.502;13.486;2023-08-06T08:46:26;99905.94;;;17.93;100.00
55610;BME280;41486;52.502;13.486;2023-08-06T08:48:55;99904.72;;;17.80;100.00
55610;BME280;41486;52.502;13.486;2023-08-06T08:51:25;99895.19;;;17.71;100.00
55610;BME280;41486;52.502;13.486;2023-08-06T08:53:53;99895.09;;;17.79;100.00
55610;BME280;41486;52.502;13.486;2023-08-06T08:56:25;99892.97;;;17.75;100.00
55610;BME280;41486;52.502;13.486;2023-08-06T08:58:53;99894.72;;;17.67;100.00
55610;BME280;41486;52.502;13.486;2023-08-06T09:01:22;99893.47;;;17.78;100.00
55610;BME280;41486;52.502;13.486;2023-08-06T09:03:51;99888.53;;;18.05;100.00
55610;BME280;41486;52.502;13.486;2023-08-06T09:06:23;99886.50;;;18.22;100.00
55610;BME280;41486;52.502;13.486;2023-08-06T09:09:01;99875.09;;;18.28;100.00
55610;BME280;41486;52.502;13.486;2023-08-06T09:11:37;99869.78;;;18.28;100.00
55610;BME280;41486;52.502;13.486;2023-08-06T09:14:10;99870.88;;;18.19;100.00
55610;BME280;41486;52.502;13.486;2023-08-06T09:16:38;99869.97;;;18.12;100.00
55610;BME280;41486;52.502;13.486;2023-08-06T09:19:07;99863.66;;;18.13;100.00
55610;BME280;41486;52.502;13.486;2023-08-06T09:21:37;99864.53;;;18.20;100.00
55610;BME280;41486;52.502;13.486;2023-08-06T09:24:09;99870.31;;;18.24;100.00
55610;BME280;41486;52.502;13.486;2023-08-06T09:26:40;99859.13;;;18.28;100.00
55610;BME280;41486;52.502;13.486;2023-08-06T09:29:09;99859.78;;;18.16;100.00
55610;BME280;41486;52.502;13.486;2023-08-06T09:31:42;99852.59;;;18.16;100.00
55610;BME280;41486;52.502;13.486;2023-08-06T09:34:12;99853.44;;;17.87;100.00
55610;BME280;41486;52.502;13.486;2023-08-06T09:36:42;99855.31;;;18.01;100.00
55610;BME280;41486;52.502;13.486;2023-08-06T09:39:13;99850.03;;;17.63;100.00
55610;BME280;41486;52.502;13.486;2023-08-06T09:41:45;99857.09;;;17.56;100.00
55610;BME280;41486;52.502;13.486;2023-08-06T09:44:19;99854.78;;;17.38;100.00
55610;BME280;41486;52.502;13.486;2023-08-06T09:46:48;99839.66;;;17.23;100.00
55610;BME280;41486;52.502;13.486;2023-08-06T09:49:19;99842.31;;;17.23;100.00
55610;BME280;41486;52.502;13.486;2023-08-06T09:51:50;99835.22;;;17.15;100.00
55610;BME280;41486;52.502;13.486;2023-08-06T09:54:22;99834.63;;;17.43;100.00
55610;BME280;41486;52.502;13.486;2023-08-06T09:56:56;99831.78;;;17.75;100.00
55610;BME280;41486;52.502;13.486;2023-08-06T09:59:24;99829.56;;;17.93;100.00
55610;BME280;41486;52.502;13.486;2023-08-06T10:01:54;99830.69;;;17.54;100.00
55610;BME280;41486;52.502;13.486;2023-08-06T10:04:23;99822.88;;;17.67;100.00
55610;BME280;41486;52.502;13.486;2023-08-06T10:06:59;99819.56;;;17.80;100.00
55610;BME280;41486;52.502;13.486;2023-08-06T10:09:28;99824.06;;;17.95;100.00
55610;BME280;41486;52.502;13.486;2023-08-06T10:11:58;99813.28;;;17.96;100.00
55610;BME280;41486;52.502;13.486;2023-08-06T10:14:30;99817.19;;;18.01;100.00
55610;BME280;41486;52.502;13.486;2023-08-06T10:17:00;99811.88;;;18.01;100.00
55610;BME280;41486;52.502;13.486;2023-08-06T10:19:30;99813.88;;;18.35;100.00
55610;BME280;41486;52.502;13.486;2023-08-06T10:22:09;99806.19;;;18.40;100.00
55610;BME280;41486;52.502;13.486;2023-08-06T10:24:48;99807.38;;;18.38;100.00
55610;BME280;41486;52.502;13.486;2023-08-06T10:27:22;99810.59;;;17.96;100.00
55610;BME280;41486;52.502;13.486;2023-08-06T10:29:51;99808.78;;;17.82;100.00
55610;BME280;41486;52.502;13.486;2023-08-06T10:32:19;99799.84;;;17.90;100.00
55610;BME280;41486;52.502;13.486;2023-08-06T10:34:58;99802.69;;;17.88;100.00
55610;BME280;41486;52.502;13.486;2023-08-06T10:37:35;99802.41;;;17.83;100.00
55610;BME280;41486;52.502;13.486;2023-08-06T10:40:06;99800.00;;;18.18;100.00
55610;BME280;41486;52.502;13.486;2023-08-06T10:42:40;99800.19;;;18.17;100.00
55610;BME280;41486;52.502;13.486;2023-08-06T10:45:11;99797.69;;;18.15;100.00
55610;BME280;41486;52.502;13.486;2023-08-06T10:47:42;99799.88;;;18.48;100.00
55610;BME280;41486;52.502;13.486;2023-08-06T10:50:12;99793.22;;;18.37;100.00
55610;BME280;41486;52.502;13.486;2023-08-06T10:52:40;99791.66;;;18.21;100.00
55610;BME280;41486;52.502;13.486;2023-08-06T10:55:09;99792.75;;;18.12;100.00
55610;BME280;41486;52.502;13.486;2023-08-06T10:57:39;99791.25;;;18.24;100.00
55610;BME280;41486;52.502;13.486;2023-08-06T11:00:08;99789.03;;;18.28;100.00
55610;BME280;41486;52.502;13.486;2023-08-06T11:02:43;99790.25;;;18.25;100.00
55610;BME280;41486;52.502;13.486;2023-08-06T11:05:12;99782.84;;;18.42;100.00
55610;BME280;41486;52.502;13.486;2023-08-06T11:07:40;99772.44;;;18.48;100.00
55610;BME280;41486;52.502;13.486;2023-08-06T11:10:10;99774.25;;;18.47;100.00
55610;BME280;41486;52.502;13.486;2023-08-06T11:12:39;99773.81;;;18.43;100.00
55610;BME280;41486;52.502;13.486;2023-08-06T11:15:08;99777.44;;;18.36;100.00
55610;BME280;41486;52.502;13.486;2023-08-06T11:17:37;99764.13;;;18.36;100.00
55610;BME280;41486;52.502;13.486;2023-08-06T11:20:08;99768.81;;;18.34;100.00
55610;BME280;41486;52.502;13.486;2023-08-06T11:22:37;99767.44;;;18.38;100.00
55610;BME280;41486;52.502;13.486;2023-08-06T11:25:07;99765.72;;;18.30;100.00
55610;BME280;41486;52.502;13.486;2023-08-06T11:27:35;99759.72;;;18.28;100.00
55610;BME280;41486;52.502;13.486;2023-08-06T11:30:05;99758.47;;;18.24;100.00
55610;BME280;41486;52.502;13.486;2023-08-06T11:32:44;99758.03;;;18.20;100.00
55610;BME280;41486;52.502;13.486;2023-08-06T11:35:14;99749.84;;;18.22;100.00
55610;BME280;41486;52.502;13.486;2023-08-06T11:37:44;99747.63;;;18.04;100.00
55610;BME280;41486;52.502;13.486;2023-08-06T11:40:14;99736.66;;;18.13;100.00
55610;BME280;41486;52.502;13.486;2023-08-06T11:42:43;99734.31;;;18.04;100.00
55610;BME280;41486;52.502;13.486;2023-08-06T11:45:14;99739.38;;;17.99;100.00
55610;BME280;41486;52.502;13.486;2023-08-06T11:47:42;99736.22;;;18.10;100.00
55610;BME280;41486;52.502;13.486;2023-08-06T11:50:22;99726.78;;;18.07;100.00
55610;BME280;41486;52.502;13.486;2023-08-06T11:52:53;99726.25;;;18.19;100.00
55610;BME280;41486;52.502;13.486;2023-08-06T11:55:23;99726.41;;;18.32;100.00
55610;BME280;41486;52.502;13.486;2023-08-06T11:57:52;99721.66;;;18.27;100.00
55610;BME280;41486;52.502;13.486;2023-08-06T12:00:23;99718.59;;;18.09;100.00
55610;BME280;41486;52.502;13.486;2023-08-06T12:02:51;99723.03;;;18.23;100.00
55610;BME280;41486;52.502;13.486;2023-08-06T12:05:30;99719.22;;;18.33;100.00
55610;BME280;41486;52.502;13.486;2023-08-06T12:08:01;99707.31;;;18.28;100.00
55610;BME280;41486;52.502;13.486;2023-08-06T12:10:31;99714.28;;;18.29;100.00
55610;BME280;41486;52.502;13.486;2023-08-06T12:13:00;99709.66;;;18.38;100.00
55610;BME280;41486;52.502;13.486;2023-08-06T12:15:30;99702.47;;;18.39;100.00
55610;BME280;41486;52.502;13.486;2023-08-06T12:17:59;99708.06;;;18.44;100.00
55610;BME280;41486;52.502;13.486;2023-08-06T12:20:27;99705.91;;;18.11;100.00
55610;BME280;41486;52.502;13.486;2023-08-06T12:22:56;99709.72;;;18.02;100.00
55610;BME280;41486;52.502;13.486;2023-08-06T12:25:24;99705.91;;;18.33;100.00
55610;BME280;41486;52.502;13.486;2023-08-06T12:27:52;99711.13;;;18.19;100.00
55610;BME280;41486;52.502;13.486;2023-08-06T12:30:20;99705.28;;;18.31;100.00
55610;BME280;41486;52.502;13.486;2023-08-06T12:32:50;99709.22;;;18.35;100.00
55610;BME280;41486;52.502;13.486;2023-08-06T12:35:18;99705.91;;;18.33;100.00
55610;BME280;41486;52.502;13.486;2023-08-06T12:37:47;99712.63;;;18.50;100.00
55610;BME280;41486;52.502;13.486;2023-08-06T12:40:16;99711.22;;;18.54;100.00
55610;BME280;41486;52.502;13.486;2023-08-06T12:43:01;99698.22;;;18.44;100.00
55610;BME280;41486;52.502;13.486;2023-08-06T12:45:33;99708.94;;;18.51;100.00
55610;BME280;41486;52.502;13.486;2023-08-06T12:48:03;99705.06;;;18.54;100.00